Time;durP1;ratioP1;P1;durP2;ratioP2;P2;SDS_P1;SDS_P2;PMS_P1;PMS_P2;Temp;Humidity;BMP_temperature;BMP_pressure;BME280_temperature;BME280_humidity;BME280_pressure;Samples;Min_cycle;Max_cycle;Signal;HPM_P1;HPM_P2
2020/12/29 00:01:46;;;;;;;31.33;19.02;;;;;;;-0.99;89.07;101058.95;1774544;80;21145;-36
2020/12/29 00:04:20;;;;;;;27.98;16.62;;;;;;;-0.98;89.18;101060.69;1775101;80;21510;-37
2020/12/29 00:06:55;;;;;;;28.52;17.52;;;;;;;-0.97;89.22;101055.64;1774881;80;21442;-36
2020/12/29 00:09:26;;;;;;;30.55;17.75;;;;;;;-0.96;89.24;101055.25;1774950;80;21502;-35
2020/12/29 00:11:57;;;;;;;29.12;17.37;;;;;;;-0.99;89.29;101047.52;1774877;80;21216;-34
2020/12/29 00:14:25;;;;;;;25.12;16.05;;;;;;;-0.99;89.25;101050.91;1774941;80;21434;-34
2020/12/29 00:16:52;;;;;;;32.08;18.60;;;;;;;-0.98;89.29;101045.02;1774975;80;20988;-35
2020/12/29 00:19:22;;;;;;;33.92;18.57;;;;;;;-0.98;89.39;101039.93;1775036;80;20975;-35
2020/12/29 00:21:50;;;;;;;32.58;17.70;;;;;;;-0.99;89.41;101038.20;1774869;80;20999;-34
2020/12/29 00:24:17;;;;;;;29.00;16.60;;;;;;;-0.96;89.44;101026.02;1774857;80;21320;-36
2020/12/29 00:26:47;;;;;;;29.15;17.60;;;;;;;-0.98;89.49;101023.41;1772515;80;20979;-34
2020/12/29 00:29:15;;;;;;;30.37;18.45;;;;;;;-0.97;89.54;101018.79;1775070;80;21007;-36
2020/12/29 00:31:43;;;;;;;29.45;17.12;;;;;;;-0.98;89.58;101010.70;1774858;80;20987;-35
2020/12/29 00:34:11;;;;;;;26.20;17.27;;;;;;;-0.97;89.58;101011.16;1774995;80;21050;-34
2020/12/29 00:36:39;;;;;;;31.68;17.98;;;;;;;-0.96;89.57;101012.89;1774951;80;21368;-35
2020/12/29 00:39:07;;;;;;;26.33;16.55;;;;;;;-0.94;89.59;100992.20;1774907;80;21407;-36
2020/12/29 00:41:37;;;;;;;27.30;15.83;;;;;;;-0.95;89.63;100999.80;1774866;80;20999;-36
2020/12/29 00:44:05;;;;;;;27.98;17.65;;;;;;;-0.97;89.64;100997.18;1774960;80;20924;-36
2020/12/29 00:46:33;;;;;;;31.57;17.95;;;;;;;-0.95;89.68;101007.00;1774960;80;20995;-35
2020/12/29 00:49:00;;;;;;;26.65;17.27;;;;;;;-0.97;89.76;100997.18;1774801;80;21260;-36
2020/12/29 00:51:28;;;;;;;30.45;18.55;;;;;;;-0.97;89.85;100997.18;1774955;80;21062;-36
2020/12/29 00:53:58;;;;;;;32.98;19.42;;;;;;;-0.98;89.87;101002.23;1775001;80;20876;-35
2020/12/29 00:56:27;;;;;;;29.92;17.82;;;;;;;-1.00;89.92;101009.78;1774905;80;20884;-35
2020/12/29 00:58:55;;;;;;;38.40;19.98;;;;;;;-0.98;89.93;101029.77;1775091;80;21486;-36
2020/12/29 01:01:24;;;;;;;34.13;19.07;;;;;;;-0.98;90.01;101047.98;1775114;80;21366;-36
2020/12/29 01:04:10;;;;;;;30.05;18.52;;;;;;;-0.99;90.03;101038.20;1775002;80;21002;-36
2020/12/29 01:06:40;;;;;;;34.20;18.95;;;;;;;-0.97;90.08;101026.84;1753106;80;21011;-36
2020/12/29 01:09:09;;;;;;;30.68;18.75;;;;;;;-0.95;90.07;101019.70;1774394;80;21018;-36
2020/12/29 01:11:38;;;;;;;34.92;18.67;;;;;;;-0.94;90.00;101030.76;1775014;80;20924;-36
2020/12/29 01:14:06;;;;;;;32.13;17.27;;;;;;;-0.96;90.06;101012.89;1774920;80;21442;-36
2020/12/29 01:16:37;;;;;;;31.10;19.27;;;;;;;-0.96;90.12;101000.61;1774205;80;21093;-35
2020/12/29 01:19:06;;;;;;;31.57;18.10;;;;;;;-0.97;90.16;100999.72;1774898;80;21446;-36
2020/12/29 01:21:34;;;;;;;33.83;17.60;;;;;;;-0.98;90.23;100992.91;1774691;80;20900;-35
2020/12/29 01:24:01;;;;;;;28.42;17.48;;;;;;;-0.97;90.25;100970.49;1775004;80;21569;-34
2020/12/29 01:26:29;;;;;;;31.77;16.87;;;;;;;-0.96;90.23;100959.52;1774964;80;21192;-35
2020/12/29 01:28:57;;;;;;;30.70;17.02;;;;;;;-1.00;90.36;100961.91;1774836;80;21033;-35
2020/12/29 01:31:29;;;;;;;29.23;17.23;;;;;;;-1.00;90.34;100948.78;1774858;80;20927;-34
2020/12/29 01:33:59;;;;;;;29.48;16.50;;;;;;;-1.02;90.44;100956.75;1774827;80;21000;-35
2020/12/29 01:36:28;;;;;;;29.42;16.05;;;;;;;-1.02;90.49;100960.56;1775042;80;20912;-34
2020/12/29 01:38:55;;;;;;;28.17;15.43;;;;;;;-1.02;90.52;100960.14;1774845;80;21360;-35
2020/12/29 01:41:23;;;;;;;31.05;17.75;;;;;;;-1.01;90.59;100957.22;1774877;80;21031;-37
2020/12/29 01:43:51;;;;;;;26.93;16.93;;;;;;;-1.02;90.63;100965.65;1774922;80;20979;-35
2020/12/29 01:46:19;;;;;;;29.07;16.87;;;;;;;-1.00;90.57;100967.84;1774812;80;21066;-36
2020/12/29 01:48:47;;;;;;;27.85;17.00;;;;;;;-0.99;90.65;100963.22;1774935;80;21014;-37
2020/12/29 01:51:15;;;;;;;27.02;16.35;;;;;;;-0.99;90.63;100949.66;1775009;80;21373;-34
2020/12/29 01:53:43;;;;;;;29.32;16.97;;;;;;;-0.99;90.67;100956.02;1774873;80;21043;-33
2020/12/29 01:56:11;;;;;;;27.67;17.02;;;;;;;-0.99;90.64;100944.16;1774726;80;20959;-34
2020/12/29 01:58:41;;;;;;;24.80;15.60;;;;;;;-1.00;90.63;100952.59;1729523;80;21042;-34
2020/12/29 02:01:09;;;;;;;25.20;15.13;;;;;;;-0.99;90.64;100964.48;1774937;80;21027;-35
2020/12/29 02:03:38;;;;;;;25.08;15.70;;;;;;;-1.00;90.68;100965.30;1774831;80;20962;-36
2020/12/29 02:06:06;;;;;;;26.82;15.15;;;;;;;-0.99;90.73;100973.39;1774758;80;21423;-36
2020/12/29 02:08:34;;;;;;;26.17;15.00;;;;;;;-0.98;90.75;100970.03;1753197;80;20920;-36
2020/12/29 02:11:02;;;;;;;26.48;15.38;;;;;;;-0.97;90.71;100973.03;1774916;80;20991;-35
2020/12/29 02:13:40;;;;;;;29.57;15.80;;;;;;;-0.97;90.73;100976.00;1774916;80;20951;-35
2020/12/29 02:16:08;;;;;;;33.73;17.10;;;;;;;-0.99;90.81;100977.20;1753312;80;22224;-36
2020/12/29 02:18:37;;;;;;;29.52;16.00;;;;;;;-0.98;90.78;100964.95;1774902;80;20928;-36
2020/12/29 02:21:05;;;;;;;28.20;17.23;;;;;;;-0.98;90.78;100970.03;1774790;80;21141;-35
2020/12/29 02:23:33;;;;;;;29.42;16.35;;;;;;;-0.97;90.84;100969.22;1774878;80;20948;-36
2020/12/29 02:26:02;;;;;;;27.65;16.52;;;;;;;-0.98;90.87;100967.49;1774897;80;21395;-35
2020/12/29 02:28:31;;;;;;;31.45;15.58;;;;;;;-0.96;90.89;100980.27;1774801;80;21449;-35
2020/12/29 02:30:59;;;;;;;33.98;18.32;;;;;;;-0.96;90.88;100959.52;1774910;80;21046;-36
2020/12/29 02:33:27;;;;;;;28.25;17.07;;;;;;;-0.97;90.90;100942.53;1774958;80;20880;-36
2020/12/29 02:35:55;;;;;;;29.27;16.65;;;;;;;-0.98;90.97;100948.42;1774800;80;20995;-35
2020/12/29 02:38:23;;;;;;;33.78;17.73;;;;;;;-0.99;90.97;100949.66;1774954;80;20964;-35
2020/12/29 02:40:51;;;;;;;30.00;17.40;;;;;;;-0.97;90.99;100947.62;1774913;80;21261;-35
2020/12/29 02:43:19;;;;;;;33.98;17.05;;;;;;;-0.97;91.07;100949.31;1774970;80;21031;-36
2020/12/29 02:45:47;;;;;;;36.58;18.27;;;;;;;-0.98;91.10;100957.74;1775072;80;21530;-37
2020/12/29 02:48:15;;;;;;;30.27;17.35;;;;;;;-0.97;91.17;100940.41;1775023;80;20928;-35
2020/12/29 02:50:43;;;;;;;30.40;17.80;;;;;;;-0.97;91.20;100959.05;1775076;80;21007;-35
2020/12/29 02:53:11;;;;;;;34.48;18.30;;;;;;;-0.97;91.20;100945.08;1774995;80;21946;-34
2020/12/29 02:55:40;;;;;;;32.05;17.50;;;;;;;-0.96;91.23;100946.80;1774852;80;21530;-35
2020/12/29 02:58:08;;;;;;;29.27;17.95;;;;;;;-0.99;91.28;100943.30;1753456;80;20949;-35
2020/12/29 03:00:36;;;;;;;28.75;17.35;;;;;;;-0.97;91.32;100932.36;1774911;80;21498;-36
2020/12/29 03:03:03;;;;;;;35.40;18.35;;;;;;;-0.96;91.28;100925.20;1775045;80;20990;-35
2020/12/29 03:05:31;;;;;;;37.05;19.35;;;;;;;-0.92;91.31;100918.56;1775011;80;21198;-35
2020/12/29 03:07:59;;;;;;;32.17;17.62;;;;;;;-0.96;91.37;100907.41;1774955;80;21034;-36
2020/12/29 03:10:27;;;;;;;35.50;18.23;;;;;;;-0.96;91.46;100901.48;1775130;80;21043;-35
2020/12/29 03:12:56;;;;;;;30.95;18.05;;;;;;;-0.96;91.54;100901.48;1774926;80;20940;-35
2020/12/29 03:15:24;;;;;;;32.20;17.20;;;;;;;-0.98;91.56;100898.86;1775169;80;20911;-35
2020/12/29 03:17:52;;;;;;;38.35;18.45;;;;;;;-0.97;91.56;100891.70;1775018;80;22532;-35
2020/12/29 03:20:20;;;;;;;32.70;18.07;;;;;;;-0.93;91.51;100887.59;1774906;80;21205;-37
2020/12/29 03:22:48;;;;;;;35.63;18.12;;;;;;;-0.94;91.57;100877.83;1774933;80;20916;-35
2020/12/29 03:25:16;;;;;;;36.10;18.15;;;;;;;-0.96;91.64;100870.55;1774903;80;20932;-35
2020/12/29 03:27:44;;;;;;;42.95;20.40;;;;;;;-0.97;91.68;100894.23;1774952;80;21070;-36
2020/12/29 03:30:11;;;;;;;35.80;18.62;;;;;;;-0.96;91.76;100897.23;1775174;80;22263;-35
2020/12/29 03:32:39;;;;;;;41.05;20.30;;;;;;;-0.96;91.75;100889.61;1774959;80;21081;-35
2020/12/29 03:35:07;;;;;;;36.23;18.42;;;;;;;-0.95;91.73;100890.07;1774897;80;21011;-36
2020/12/29 03:37:35;;;;;;;35.35;20.02;;;;;;;-0.97;91.86;100894.23;1774944;80;20920;-34
2020/12/29 03:40:03;;;;;;;35.20;18.23;;;;;;;-0.98;91.88;100891.23;1775027;80;20999;-36
2020/12/29 03:42:33;;;;;;;32.05;17.55;;;;;;;-0.93;91.83;100884.64;1774979;80;22159;-35
2020/12/29 03:45:01;;;;;;;38.80;18.92;;;;;;;-0.95;91.90;100904.48;1774884;80;21118;-35
2020/12/29 03:47:30;;;;;;;37.33;19.05;;;;;;;-0.98;91.99;100896.32;1774990;80;21011;-35
2020/12/29 03:49:58;;;;;;;33.83;16.75;;;;;;;-0.96;92.03;100892.16;1775067;80;20888;-35
2020/12/29 03:52:26;;;;;;;31.57;17.30;;;;;;;-0.96;92.04;100876.91;1774997;80;21022;-34
2020/12/29 03:54:54;;;;;;;33.10;17.85;;;;;;;-0.97;92.10;100885.34;1775035;80;22342;-35
2020/12/29 03:57:21;;;;;;;33.85;18.10;;;;;;;-0.97;92.18;100890.42;1774978;80;20971;-36
2020/12/29 03:59:49;;;;;;;31.60;17.48;;;;;;;-0.95;92.10;100896.84;1774790;80;21026;-35
2020/12/29 04:02:17;;;;;;;31.27;17.77;;;;;;;-0.97;92.17;100876.45;1774969;80;20923;-36
2020/12/29 04:04:45;;;;;;;35.00;17.75;;;;;;;-0.95;92.18;100877.36;1775039;80;20935;-34
2020/12/29 04:07:13;;;;;;;33.98;17.42;;;;;;;-0.96;92.26;100888.34;1774880;80;22720;-35
2020/12/29 04:09:41;;;;;;;35.25;18.50;;;;;;;-0.97;92.31;100891.70;1774859;80;20995;-35
2020/12/29 04:12:09;;;;;;;37.83;18.35;;;;;;;-0.96;92.33;100885.80;1775013;80;21066;-34
2020/12/29 04:14:37;;;;;;;35.92;19.62;;;;;;;-0.96;92.37;100885.80;1774911;80;20919;-35
2020/12/29 04:17:05;;;;;;;36.75;19.45;;;;;;;-0.94;92.37;100883.33;1774948;80;20924;-35
2020/12/29 04:19:34;;;;;;;37.70;18.85;;;;;;;-0.96;92.38;100869.28;1774906;80;21196;-35
2020/12/29 04:22:02;;;;;;;35.13;19.73;;;;;;;-0.93;92.38;100873.62;1774920;80;20995;-36
2020/12/29 04:24:29;;;;;;;38.73;21.02;;;;;;;-0.93;92.41;100865.57;1749568;82;21032;-36
2020/12/29 04:26:57;;;;;;;37.65;20.17;;;;;;;-0.97;92.50;100872.63;1749473;82;21091;-35
2020/12/29 04:29:25;;;;;;;39.83;20.02;;;;;;;-0.93;92.52;100852.02;1749490;82;20933;-35
2020/12/29 04:31:54;;;;;;;36.68;19.73;;;;;;;-0.94;92.53;100853.67;1749556;82;21551;-36
2020/12/29 04:34:22;;;;;;;39.38;21.60;;;;;;;-0.94;92.58;100848.59;1749443;82;21145;-35
2020/12/29 04:36:53;;;;;;;39.75;20.65;;;;;;;-0.92;92.59;100844.84;1749526;82;21031;-35
2020/12/29 04:39:22;;;;;;;35.08;19.15;;;;;;;-0.91;92.60;100847.42;1749499;82;21502;-36
2020/12/29 04:41:53;;;;;;;37.98;19.70;;;;;;;-0.95;92.71;100870.16;1749502;82;21059;-36
2020/12/29 04:44:21;;;;;;;35.45;18.73;;;;;;;-0.95;92.78;100863.80;1720988;82;22692;-35
2020/12/29 04:46:49;;;;;;;37.67;20.65;;;;;;;-0.96;92.82;100863.34;1749475;82;20898;-36
2020/12/29 04:49:17;;;;;;;37.38;18.80;;;;;;;-0.95;92.86;100848.13;1749688;82;22299;-35
2020/12/29 04:51:45;;;;;;;40.12;20.45;;;;;;;-0.92;92.84;100831.72;1696756;82;20925;-34
2020/12/29 04:54:14;;;;;;;37.95;21.25;;;;;;;-0.89;92.77;100838.17;1720473;82;20997;-36
2020/12/29 04:56:43;;;;;;;40.58;19.70;;;;;;;-0.92;92.88;100841.03;1749448;82;21212;-37
2020/12/29 04:59:10;;;;;;;39.92;20.68;;;;;;;-0.94;92.88;100835.03;1720484;82;21139;-36
2020/12/29 05:01:41;;;;;;;37.48;20.15;;;;;;;-0.91;92.89;100833.86;1749418;82;21051;-35
2020/12/29 05:04:09;;;;;;;41.85;20.95;;;;;;;-0.93;92.96;100840.16;1698000;82;21095;-36
2020/12/29 05:06:37;;;;;;;39.50;20.70;;;;;;;-0.95;93.02;100857.03;1749472;82;20921;-35
2020/12/29 05:09:04;;;;;;;40.60;21.10;;;;;;;-0.95;93.09;100830.77;1749557;82;21323;-35
2020/12/29 05:11:36;;;;;;;38.20;19.45;;;;;;;-0.96;93.12;100837.51;1749454;82;20993;-35
2020/12/29 05:14:04;;;;;;;38.28;19.80;;;;;;;-0.97;93.15;100824.34;1749584;82;21114;-36
2020/12/29 05:16:39;;;;;;;38.15;21.05;;;;;;;-0.97;93.18;100830.70;1749444;82;21001;-36
2020/12/29 05:19:18;;;;;;;38.60;20.45;;;;;;;-0.95;93.29;100834.16;1847680;76;22379;-35
2020/12/29 05:21:47;;;;;;;35.45;20.77;;;;;;;-0.96;93.25;100834.12;1813124;78;21010;-35
2020/12/29 05:24:21;;;;;;;41.33;21.93;;;;;;;-0.96;93.26;100841.32;1818064;79;21189;-36
2020/12/29 05:26:52;;;;;;;39.95;21.20;;;;;;;-0.92;93.30;100846.11;1817918;79;20971;-36
2020/12/29 05:29:22;;;;;;;40.78;21.37;;;;;;;-0.90;93.24;100836.86;1817897;79;20920;-36
2020/12/29 05:31:50;;;;;;;38.55;21.85;;;;;;;-0.97;93.34;100843.41;1817986;78;20970;-35
2020/12/29 05:34:27;;;;;;;47.15;22.77;;;;;;;-0.99;93.37;100851.81;1818132;79;20967;-35
2020/12/29 05:36:57;;;;;;;48.83;24.50;;;;;;;-0.94;93.42;100863.84;1817903;79;21420;-34
2020/12/29 05:39:28;;;;;;;43.52;22.58;;;;;;;-0.98;93.42;100868.36;1818060;79;21553;-37
2020/12/29 05:41:56;;;;;;;31.90;18.85;;;;;;;-1.01;93.49;100897.48;1817991;78;20923;-41
2020/12/29 05:44:31;;;;;;;42.20;22.02;;;;;;;-1.00;93.55;100899.22;1817883;79;20926;-39
2020/12/29 05:47:04;;;;;;;29.33;15.70;;;;;;;-0.98;93.55;100889.97;1818198;78;20970;-37
2020/12/29 05:49:32;;;;;;;44.75;22.07;;;;;;;-0.99;93.64;100900.09;1818064;78;21372;-34
2020/12/29 05:52:00;;;;;;;35.85;21.27;;;;;;;-0.97;93.63;100901.02;1817895;79;20971;-37
2020/12/29 05:54:28;;;;;;;42.03;21.82;;;;;;;-0.96;93.63;100902.75;1817961;78;20988;-37
2020/12/29 05:56:56;;;;;;;43.85;23.90;;;;;;;-0.97;93.67;100903.55;1817980;79;20974;-34
2020/12/29 05:59:24;;;;;;;43.08;22.40;;;;;;;-0.95;93.69;100900.23;1787033;79;20920;-34
2020/12/29 06:01:53;;;;;;;41.00;22.17;;;;;;;-0.91;93.64;100893.18;1817987;79;21377;-35
2020/12/29 06:04:20;;;;;;;34.53;20.65;;;;;;;-0.92;93.66;100886.79;1817877;79;20931;-37
2020/12/29 06:06:49;;;;;;;40.88;20.97;;;;;;;-0.92;93.65;100874.08;1818007;79;20985;-36
2020/12/29 06:09:18;;;;;;;42.65;21.27;;;;;;;-0.93;93.71;100868.11;1817932;79;20986;-35
2020/12/29 06:11:55;;;;;;;39.92;21.30;;;;;;;-0.91;93.73;100885.97;1817996;78;21406;-34
2020/12/29 06:14:26;;;;;;;42.13;22.02;;;;;;;-0.89;93.69;100876.72;1818052;79;21906;-35
2020/12/29 06:16:55;;;;;;;47.17;22.02;;;;;;;-0.90;93.77;100886.44;1817852;78;21045;-36
2020/12/29 06:19:27;;;;;;;44.95;21.73;;;;;;;-0.89;93.81;100888.16;1832019;78;20918;-37
2020/12/29 06:22:11;;;;;;;45.23;20.68;;;;;;;-0.85;93.80;100898.05;1805638;78;21037;-34
2020/12/29 06:24:41;;;;;;;35.70;19.45;;;;;;;-0.85;93.79;100901.86;1832969;78;21033;-35
2020/12/29 06:27:10;;;;;;;45.55;22.40;;;;;;;-0.84;93.82;100897.23;1832987;78;21360;-35
2020/12/29 06:29:43;;;;;;;43.85;22.25;;;;;;;-0.85;93.85;100891.27;1832596;78;21037;-34
2020/12/29 06:32:15;;;;;;;37.23;19.87;;;;;;;-0.82;93.84;100881.63;1832534;78;20984;-34
2020/12/29 06:34:44;;;;;;;39.98;21.80;;;;;;;-0.81;93.84;100897.34;1832436;78;20954;-35
2020/12/29 06:39:09;;;;;;;38.50;21.15;;;;;;;-0.75;93.88;100893.34;1816075;79;22031;-36
2020/12/29 06:41:38;;;;;;;35.08;19.12;;;;;;;-0.77;93.85;100893.66;1784477;80;20904;-35
2020/12/29 06:44:06;;;;;;;36.50;19.35;;;;;;;-0.75;93.82;100904.78;1734563;80;22356;-33
2020/12/29 06:46:34;;;;;;;41.00;20.97;;;;;;;-0.74;93.78;100892.53;1758859;80;21002;-35
2020/12/29 06:49:21;;;;;;;42.50;20.48;;;;;;;-0.72;93.73;100891.30;1789137;80;21061;-34
2020/12/29 06:52:11;;;;;;;37.93;19.62;;;;;;;-0.73;93.80;100903.55;1789070;80;21429;-34
2020/12/29 06:54:51;;;;;;;39.53;21.73;;;;;;;-0.72;93.82;100904.00;1789161;80;21014;-35
2020/12/29 06:57:38;;;;;;;43.25;20.62;;;;;;;-0.70;93.82;100892.20;1789145;80;21370;-36
2020/12/29 07:00:16;;;;;;;40.95;20.92;;;;;;;-0.67;93.76;100883.83;1789105;80;21002;-38
2020/12/29 07:02:50;;;;;;;37.03;18.42;;;;;;;-0.66;93.78;100881.75;1789174;80;20982;-33
2020/12/29 07:05:24;;;;;;;34.60;19.05;;;;;;;-0.66;93.81;100867.76;1789091;80;20923;-35
2020/12/29 07:08:04;;;;;;;38.05;18.70;;;;;;;-0.64;93.82;100858.50;1789158;80;21474;-35
2020/12/29 07:10:45;;;;;;;38.02;18.20;;;;;;;-0.63;93.80;100862.77;1789135;80;21192;-35
2020/12/29 07:13:14;;;;;;;37.25;18.85;;;;;;;-0.61;93.81;100870.93;1789185;80;21077;-35
2020/12/29 07:15:51;;;;;;;36.85;19.05;;;;;;;-0.59;93.77;100876.92;1789111;80;21018;-34
2020/12/29 07:18:27;;;;;;;37.53;17.92;;;;;;;-0.56;93.75;100877.84;1789143;80;20911;-34
2020/12/29 07:20:57;;;;;;;33.40;18.02;;;;;;;-0.55;93.74;100882.12;1789146;80;20975;-36
2020/12/29 07:23:28;;;;;;;34.80;18.15;;;;;;;-0.55;93.74;100891.86;1789070;80;21361;-36
2020/12/29 07:25:59;;;;;;;33.00;17.23;;;;;;;-0.55;93.79;100884.66;1788945;80;20994;-36
2020/12/29 07:28:29;;;;;;;34.48;18.35;;;;;;;-0.54;93.79;100874.52;1789240;80;20927;-38
2020/12/29 07:30:57;;;;;;;36.95;17.65;;;;;;;-0.50;93.76;100875.50;1789001;80;20935;-35
2020/12/29 07:33:26;;;;;;;39.05;19.65;;;;;;;-0.48;93.72;100873.48;1789092;80;21006;-36
2020/12/29 07:35:54;;;;;;;35.38;17.52;;;;;;;-0.47;93.73;100866.70;1789055;80;21394;-36
2020/12/29 07:38:25;;;;;;;32.28;17.10;;;;;;;-0.45;93.60;100868.88;1784583;80;21018;-34
2020/12/29 07:40:53;;;;;;;35.78;17.75;;;;;;;-0.44;93.62;100851.53;1781306;80;21053;-34
2020/12/29 07:43:21;;;;;;;37.10;18.25;;;;;;;-0.45;93.59;100862.12;1781274;80;20983;-36
2020/12/29 07:45:49;;;;;;;36.60;17.92;;;;;;;-0.46;93.61;100855.70;1781347;80;20900;-35
2020/12/29 07:48:16;;;;;;;35.58;17.77;;;;;;;-0.43;93.63;100859.62;1781253;80;21125;-34
2020/12/29 07:50:44;;;;;;;39.30;17.80;;;;;;;-0.40;93.63;100861.41;1780688;80;21010;-35
2020/12/29 07:53:12;;;;;;;34.20;18.07;;;;;;;-0.38;93.63;100864.48;1780747;80;21049;-36
2020/12/29 07:55:41;;;;;;;33.90;17.25;;;;;;;-0.38;93.64;100861.93;1780680;80;21018;-35
2020/12/29 07:58:09;;;;;;;33.88;17.50;;;;;;;-0.37;93.62;100863.66;1780721;80;21050;-36
2020/12/29 08:00:38;;;;;;;36.42;18.77;;;;;;;-0.33;93.60;100867.15;1780772;80;21195;-36
2020/12/29 08:03:06;;;;;;;40.75;19.00;;;;;;;-0.32;93.57;100862.52;1780782;80;21018;-37
2020/12/29 08:05:36;;;;;;;39.08;19.30;;;;;;;-0.32;93.57;100855.77;1780790;80;21015;-36
2020/12/29 08:08:07;;;;;;;40.92;18.70;;;;;;;-0.30;93.51;100849.05;1780823;80;21117;-36
2020/12/29 08:10:44;;;;;;;38.78;19.98;;;;;;;-0.27;93.53;100862.67;1780746;80;21021;-35
2020/12/29 08:13:14;;;;;;;38.02;18.25;;;;;;;-0.26;93.51;100867.80;1780837;80;21533;-35
2020/12/29 08:15:42;;;;;;;35.00;17.12;;;;;;;-0.24;93.50;100867.86;1780715;80;21038;-37
2020/12/29 08:18:18;;;;;;;29.32;15.32;;;;;;;-0.23;93.46;100865.77;1780629;80;20989;-36
2020/12/29 08:20:56;;;;;;;39.70;19.20;;;;;;;-0.22;93.48;100855.66;1780924;80;20951;-37
2020/12/29 08:23:25;;;;;;;33.92;17.70;;;;;;;-0.18;93.42;100854.05;1780965;80;20983;-37
2020/12/29 08:25:58;;;;;;;38.65;19.02;;;;;;;-0.18;93.46;100848.58;1780587;80;21394;-36
2020/12/29 08:28:29;;;;;;;34.92;17.37;;;;;;;-0.17;93.39;100859.20;1780660;80;21010;-35
2020/12/29 08:31:05;;;;;;;37.10;17.62;;;;;;;-0.14;93.33;100846.97;1780657;80;20979;-38
2020/12/29 08:33:33;;;;;;;35.15;17.30;;;;;;;-0.13;93.28;100851.66;1780728;80;20991;-37
2020/12/29 08:36:02;;;;;;;32.80;17.00;;;;;;;-0.14;93.30;100853.33;1752611;80;20991;-36
2020/12/29 08:38:42;;;;;;;36.05;17.48;;;;;;;-0.12;93.33;100870.82;1780625;80;22305;-35
2020/12/29 08:41:21;;;;;;;27.70;16.20;;;;;;;-0.12;93.31;100872.09;1780621;80;21537;-35
2020/12/29 08:43:51;;;;;;;28.67;14.87;;;;;;;-0.10;93.29;100876.82;1776995;80;20943;-36
2020/12/29 08:46:24;;;;;;;36.05;17.37;;;;;;;-0.07;93.30;100865.85;1780636;80;20923;-35
2020/12/29 08:48:59;;;;;;;31.75;16.10;;;;;;;-0.05;93.26;100866.38;1780743;80;21058;-36
2020/12/29 08:51:29;;;;;;;27.73;15.03;;;;;;;-0.05;93.25;100857.86;1780833;80;21370;-34
2020/12/29 08:54:18;;;;;;;23.87;13.70;;;;;;;-0.03;93.21;100862.19;1780755;80;21002;-37
2020/12/29 08:56:46;;;;;;;29.57;14.80;;;;;;;-0.02;93.22;100858.83;1780593;80;20995;-37
2020/12/29 08:59:22;;;;;;;26.00;13.62;;;;;;;-0.02;93.21;100855.01;1780672;80;20994;-36
2020/12/29 09:01:57;;;;;;;22.90;13.62;;;;;;;-0.01;93.24;100841.46;1780729;80;20904;-36
2020/12/29 09:04:42;;;;;;;20.67;12.93;;;;;;;0.02;93.16;100839.44;1780986;80;21272;-36
2020/12/29 09:07:12;;;;;;;23.32;14.03;;;;;;;0.03;93.16;100850.07;1780640;80;20983;-35
2020/12/29 09:09:56;;;;;;;25.27;13.43;;;;;;;0.03;93.17;100851.34;1780697;80;21615;-36
2020/12/29 09:12:32;;;;;;;21.73;13.18;;;;;;;0.04;93.17;100849.25;1780681;80;20983;-36
2020/12/29 09:15:08;;;;;;;22.07;12.20;;;;;;;0.08;93.15;100857.83;1780718;80;20983;-35
2020/12/29 09:17:44;;;;;;;18.65;11.45;;;;;;;0.09;93.03;100874.83;1780637;80;21360;-35
2020/12/29 09:20:24;;;;;;;18.92;11.10;;;;;;;0.11;93.03;100871.53;1780794;80;28311;-37
2020/12/29 09:23:11;;;;;;;22.67;11.85;;;;;;;0.09;93.04;100873.56;1780658;80;21050;-36
2020/12/29 09:25:42;;;;;;;18.57;10.80;;;;;;;0.11;93.07;100869.38;1780602;80;21062;-35
2020/12/29 09:28:24;;;;;;;20.85;11.83;;;;;;;0.13;93.02;100866.08;1780786;80;21007;-36
2020/12/29 09:31:10;;;;;;;18.60;11.25;;;;;;;0.16;93.02;100864.05;1780751;80;21283;-35
2020/12/29 09:33:39;;;;;;;14.07;9.08;;;;;;;0.21;93.01;100853.59;1780774;80;20920;-35
2020/12/29 09:36:19;;;;;;;19.25;11.30;;;;;;;0.22;92.98;100835.33;1780607;80;20884;-35
2020/12/29 09:38:48;;;;;;;14.63;8.88;;;;;;;0.28;92.84;100818.56;1778205;80;21010;-36
2020/12/29 09:41:16;;;;;;;14.70;10.03;;;;;;;0.25;92.86;100818.47;1774931;80;21117;-36
2020/12/29 09:43:45;;;;;;;17.25;10.38;;;;;;;0.26;92.89;100814.27;1775028;80;22219;-36
2020/12/29 09:46:14;;;;;;;13.28;9.40;;;;;;;0.30;92.94;100816.47;1774793;80;21561;-37
2020/12/29 09:48:42;;;;;;;14.78;9.13;;;;;;;0.34;92.93;100819.16;1775001;80;21277;-35
2020/12/29 09:51:14;;;;;;;15.43;9.25;;;;;;;0.38;92.83;100820.97;1774806;80;21010;-35
2020/12/29 09:53:42;;;;;;;15.13;10.18;;;;;;;0.38;92.85;100821.36;1774994;80;21031;-37
2020/12/29 09:56:09;;;;;;;16.10;10.20;;;;;;;0.42;92.79;100813.87;1774940;80;21208;-36
2020/12/29 09:58:39;;;;;;;13.15;8.53;;;;;;;0.42;92.75;100815.56;1771546;80;21051;-36
2020/12/29 10:01:07;;;;;;;14.65;9.05;;;;;;;0.45;92.72;100797.82;1774904;80;20884;-36
2020/12/29 10:03:36;;;;;;;15.90;10.48;;;;;;;0.46;92.74;100787.20;1774840;80;20996;-37
2020/12/29 10:06:04;;;;;;;16.97;10.00;;;;;;;0.47;92.75;100793.63;1774995;80;20976;-36
2020/12/29 10:08:32;;;;;;;16.90;9.75;;;;;;;0.50;92.66;100780.97;1774868;80;21296;-35
2020/12/29 10:11:00;;;;;;;15.28;9.75;;;;;;;0.49;92.65;100790.72;1774754;80;20948;-37
2020/12/29 10:13:28;;;;;;;16.73;9.95;;;;;;;0.54;92.63;100777.69;1774992;80;20959;-38
2020/12/29 10:15:58;;;;;;;18.07;10.82;;;;;;;0.55;92.62;100774.31;1774867;80;20940;-35
2020/12/29 10:18:25;;;;;;;16.50;9.80;;;;;;;0.57;92.56;100768.00;1774824;80;20995;-35
2020/12/29 10:20:54;;;;;;;13.85;9.15;;;;;;;0.55;92.42;100766.67;1774694;80;22848;-36
2020/12/29 10:23:22;;;;;;;19.30;10.45;;;;;;;0.53;92.45;100761.95;1774989;80;21045;-35
2020/12/29 10:25:50;;;;;;;19.80;10.45;;;;;;;0.53;92.50;100755.58;1774821;80;21047;-35
2020/12/29 10:28:19;;;;;;;17.32;10.65;;;;;;;0.53;92.54;100757.28;1774961;80;21105;-35
2020/12/29 10:30:48;;;;;;;19.65;10.20;;;;;;;0.54;92.51;100753.91;1774925;80;20999;-34
2020/12/29 10:33:16;;;;;;;17.50;10.18;;;;;;;0.54;92.50;100753.48;1775015;80;21212;-36
2020/12/29 10:35:45;;;;;;;19.17;10.85;;;;;;;0.59;92.47;100750.19;1774966;80;20995;-35
2020/12/29 10:38:14;;;;;;;16.82;10.32;;;;;;;0.57;92.49;100753.56;1774751;80;20967;-36
2020/12/29 10:40:42;;;;;;;21.80;10.60;;;;;;;0.56;92.53;100741.64;1774770;80;21022;-37
2020/12/29 10:43:09;;;;;;;14.13;9.38;;;;;;;0.64;92.56;100730.82;1774834;80;21016;-34
2020/12/29 10:45:37;;;;;;;14.78;9.85;;;;;;;0.62;92.51;100739.69;1774751;80;22806;-36
2020/12/29 10:48:05;;;;;;;16.45;10.38;;;;;;;0.61;92.54;100730.31;1774869;80;21038;-36
2020/12/29 10:50:33;;;;;;;18.27;10.88;;;;;;;0.61;92.59;100726.49;1774910;80;20960;-35
2020/12/29 10:53:01;;;;;;;15.55;9.35;;;;;;;0.63;92.61;100726.52;1774782;80;20932;-37
2020/12/29 10:55:28;;;;;;;18.27;10.98;;;;;;;0.66;92.60;100723.65;1774823;80;20908;-34
2020/12/29 10:57:56;;;;;;;17.37;10.35;;;;;;;0.69;92.56;100712.69;1774812;80;21360;-36
2020/12/29 11:00:25;;;;;;;14.98;9.78;;;;;;;0.71;92.62;100719.95;1774736;80;20987;-35
2020/12/29 11:02:53;;;;;;;17.92;9.65;;;;;;;0.70;92.55;100714.41;1774739;80;21006;-36
2020/12/29 11:05:22;;;;;;;14.45;9.18;;;;;;;0.71;92.52;100716.13;1774854;80;20952;-35
2020/12/29 11:07:49;;;;;;;15.63;9.20;;;;;;;0.74;92.51;100709.84;1774887;80;20924;-35
2020/12/29 11:10:18;;;;;;;17.82;10.72;;;;;;;0.73;92.56;100712.33;1774797;80;22412;-35
2020/12/29 11:12:46;;;;;;;16.65;10.82;;;;;;;0.75;92.52;100706.86;1774857;80;21058;-35
2020/12/29 11:15:13;;;;;;;17.45;11.05;;;;;;;0.73;92.50;100705.96;1774826;80;20983;-34
2020/12/29 11:17:42;;;;;;;19.92;10.90;;;;;;;0.78;92.47;100689.13;1774796;80;20939;-34
2020/12/29 11:20:10;;;;;;;19.95;11.70;;;;;;;0.78;92.46;100687.42;1774954;80;20987;-37
2020/12/29 11:22:38;;;;;;;17.12;10.05;;;;;;;0.78;92.49;100666.19;1774850;80;21376;-35
2020/12/29 11:25:06;;;;;;;16.32;10.65;;;;;;;0.79;92.47;100668.76;1774896;80;21015;-34
2020/12/29 11:27:34;;;;;;;17.27;11.20;;;;;;;0.82;92.56;100678.18;1774932;80;20979;-35